createdAt,value
2018-09-18T00:02:08.918Z,18.19
2018-09-18T00:04:39.230Z,18.18
2018-09-18T00:07:09.268Z,18.16
2018-09-18T00:09:39.592Z,18.19
2018-09-18T00:12:09.936Z,18.19
2018-09-18T00:14:40.374Z,18.16
2018-09-18T00:17:10.666Z,18.17
2018-09-18T00:19:41.479Z,18.14
2018-09-18T00:22:11.885Z,18.10
2018-09-18T00:24:42.328Z,18.06
2018-09-18T00:27:12.701Z,18.03
2018-09-18T00:29:43.056Z,18.03
2018-09-18T00:32:13.572Z,18.04
2018-09-18T00:34:43.512Z,18.02
2018-09-18T00:37:14.042Z,18.03
2018-09-18T00:39:44.511Z,18.00
2018-09-18T00:42:14.988Z,18.02
2018-09-18T00:44:45.456Z,18.01
2018-09-18T00:47:17.171Z,18.01
2018-09-18T00:49:47.664Z,18.01
2018-09-18T00:52:18.008Z,17.99
2018-09-18T00:54:48.450Z,17.97
2018-09-18T00:57:18.800Z,17.93
2018-09-18T00:59:48.932Z,17.92
2018-09-18T01:02:18.915Z,17.94
2018-09-18T01:04:49.349Z,17.94
2018-09-18T01:07:19.704Z,17.95
2018-09-18T01:09:50.567Z,17.94
2018-09-18T01:12:21.308Z,18.00
2018-09-18T01:14:51.783Z,18.03
2018-09-18T01:17:21.995Z,18.02
2018-09-18T01:19:52.153Z,18.02
2018-09-18T01:22:22.823Z,18.03
2018-09-18T01:24:53.112Z,18.04
2018-09-18T01:27:23.620Z,18.05
2018-09-18T01:29:54.005Z,18.06
2018-09-18T01:32:24.558Z,18.06
2018-09-18T01:34:55.037Z,18.09
2018-09-18T01:37:25.499Z,18.12
2018-09-18T01:39:55.973Z,18.16
2018-09-18T01:42:26.699Z,18.18
2018-09-18T01:44:57.193Z,18.19
2018-09-18T01:47:27.573Z,18.20
2018-09-18T01:49:58.381Z,18.20
2018-09-18T01:52:28.947Z,18.19
2018-09-18T01:54:59.310Z,18.23
2018-09-18T01:57:29.869Z,18.29
2018-09-18T02:00:00.260Z,18.29
2018-09-18T02:02:30.605Z,18.30
2018-09-18T02:05:01.105Z,18.30
2018-09-18T02:07:31.693Z,18.33
2018-09-18T02:10:02.031Z,18.36
2018-09-18T02:12:32.502Z,18.40
2018-09-18T02:15:02.750Z,18.44
2018-09-18T02:17:32.965Z,18.46
2018-09-18T02:20:03.745Z,18.49
2018-09-18T02:22:34.548Z,18.49
2018-09-18T02:25:04.792Z,18.48
2018-09-18T02:27:34.865Z,18.46
2018-09-18T02:30:05.004Z,18.45
2018-09-18T02:32:35.646Z,18.44
2018-09-18T02:35:06.448Z,18.44
2018-09-18T02:37:36.917Z,18.47
2018-09-18T02:40:07.864Z,18.49
2018-09-18T02:42:38.181Z,18.47
2018-09-18T02:45:08.802Z,18.45
2018-09-18T02:47:39.356Z,18.47
2018-09-18T02:50:09.811Z,18.50
2018-09-18T02:52:40.210Z,18.51
2018-09-18T02:55:10.888Z,18.51
2018-09-18T02:57:41.464Z,18.53
2018-09-18T03:00:12.303Z,18.57
2018-09-18T03:02:42.968Z,18.54
2018-09-18T03:05:20.782Z,18.53
2018-09-18T03:07:51.237Z,18.53
2018-09-18T03:10:21.645Z,18.52
2018-09-18T03:12:52.102Z,18.53
2018-09-18T03:15:22.830Z,18.53
2018-09-18T03:17:53.299Z,18.55
2018-09-18T03:20:23.719Z,18.57
2018-09-18T03:22:54.457Z,18.65
2018-09-18T03:25:24.873Z,18.68
2018-09-18T03:27:55.238Z,18.74
2018-09-18T03:30:25.733Z,18.76
2018-09-18T03:32:56.543Z,18.82
2018-09-18T03:35:27.209Z,18.83
2018-09-18T03:37:57.574Z,18.81
2018-09-18T03:40:27.809Z,18.85
2018-09-18T03:42:58.149Z,18.87
2018-09-18T03:45:28.678Z,18.89
2018-09-18T03:47:59.088Z,18.94
2018-09-18T03:50:29.730Z,18.90
2018-09-18T03:53:00.134Z,18.92
2018-09-18T03:55:30.557Z,18.97
2018-09-18T03:58:00.915Z,18.93
2018-09-18T04:00:31.323Z,18.94
2018-09-18T04:03:01.677Z,18.97
2018-09-18T04:05:32.039Z,18.95
2018-09-18T04:08:02.679Z,19.06
2018-09-18T04:10:33.133Z,19.06
2018-09-18T04:13:03.489Z,19.12
2018-09-18T04:15:33.718Z,19.13
2018-09-18T04:18:04.147Z,19.14
2018-09-18T04:20:34.427Z,19.12
2018-09-18T04:23:04.871Z,19.12
2018-09-18T04:25:34.927Z,19.10
2018-09-18T04:28:05.150Z,19.13
2018-09-18T04:30:35.201Z,19.13
2018-09-18T04:33:05.637Z,19.13
2018-09-18T04:35:35.995Z,19.09
2018-09-18T04:38:06.569Z,19.11
2018-09-18T04:40:36.713Z,19.08
2018-09-18T04:43:07.021Z,19.09
2018-09-18T04:45:37.639Z,19.08
2018-09-18T04:48:08.294Z,19.06
2018-09-18T04:50:38.175Z,19.03
2018-09-18T04:53:08.411Z,19.05
2018-09-18T04:55:38.647Z,19.05
2018-09-18T04:58:08.472Z,19.01
2018-09-18T05:00:38.740Z,19.01
2018-09-18T05:03:09.245Z,19.01
2018-09-18T05:05:39.192Z,18.99
2018-09-18T05:08:09.585Z,18.97
2018-09-18T05:10:39.456Z,18.99
2018-09-18T05:13:09.445Z,19.01
2018-09-18T05:15:39.290Z,19.03
2018-09-18T05:18:09.159Z,19.02
2018-09-18T05:20:39.066Z,19.00
2018-09-18T05:23:08.819Z,19.00
2018-09-18T05:25:38.962Z,19.01
2018-09-18T05:28:08.907Z,19.04
2018-09-18T05:30:38.674Z,19.08
2018-09-18T05:33:08.462Z,19.08
2018-09-18T05:35:39.465Z,19.10
2018-09-18T05:38:09.352Z,19.13
2018-09-18T05:40:39.335Z,19.14
2018-09-18T05:43:09.863Z,19.20
2018-09-18T05:45:39.821Z,19.24
2018-09-18T05:48:12.179Z,19.30
2018-09-18T05:50:43.093Z,19.43
2018-09-18T05:53:13.669Z,19.52
2018-09-18T05:55:43.576Z,19.62
2018-09-18T05:58:13.391Z,19.74
2018-09-18T06:00:43.215Z,19.80
2018-09-18T06:03:13.102Z,19.93
2018-09-18T06:05:43.034Z,19.99
2018-09-18T06:08:12.865Z,20.03
2018-09-18T06:10:43.020Z,20.11
2018-09-18T06:13:12.849Z,20.18
2018-09-18T06:15:42.715Z,20.25
2018-09-18T06:18:12.665Z,20.31
2018-09-18T06:20:42.859Z,20.41
2018-09-18T06:23:12.779Z,20.47
2018-09-18T06:25:42.646Z,20.57
2018-09-18T06:28:12.752Z,20.68
2018-09-18T06:30:42.738Z,20.82
2018-09-18T06:33:12.797Z,20.94
2018-09-18T06:35:42.688Z,21.06
2018-09-18T06:38:13.024Z,21.15
2018-09-18T06:40:43.467Z,21.29
2018-09-18T06:43:13.338Z,21.34
2018-09-18T06:45:43.320Z,21.41
2018-09-18T06:48:13.355Z,21.48
2018-09-18T06:50:43.285Z,21.49
2018-09-18T06:53:13.149Z,21.56
2018-09-18T06:55:43.297Z,21.72
2018-09-18T06:58:13.143Z,21.84
2018-09-18T07:00:43.041Z,21.87
2018-09-18T07:03:12.896Z,21.89
2018-09-18T07:05:42.986Z,21.96
2018-09-18T07:08:13.137Z,21.99
2018-09-18T07:10:43.154Z,22.01
2018-09-18T07:13:13.024Z,22.08
2018-09-18T07:15:43.110Z,22.14
2018-09-18T07:18:13.023Z,22.19
2018-09-18T07:20:43.028Z,22.29
2018-09-18T07:23:13.108Z,22.31
2018-09-18T07:25:43.096Z,22.37
2018-09-18T07:28:13.953Z,22.52
2018-09-18T07:30:44.147Z,22.57
2018-09-18T07:33:14.301Z,22.66
2018-09-18T07:35:44.168Z,22.71
2018-09-18T07:38:14.039Z,22.77
2018-09-18T07:40:44.289Z,22.82
2018-09-18T07:43:13.998Z,22.88
2018-09-18T07:45:43.781Z,22.89
2018-09-18T07:48:14.196Z,22.96
2018-09-18T07:50:44.254Z,23.03
2018-09-18T07:53:14.216Z,23.12
2018-09-18T07:55:44.093Z,23.10
2018-09-18T07:58:13.973Z,23.19
2018-09-18T08:00:43.916Z,23.32
2018-09-18T08:03:13.701Z,23.40
2018-09-18T08:05:43.955Z,23.45
2018-09-18T08:08:13.781Z,23.50
2018-09-18T08:10:43.762Z,23.53
2018-09-18T08:13:13.818Z,23.71
2018-09-18T08:15:44.212Z,23.69
2018-09-18T08:18:14.340Z,23.81
2018-09-18T08:20:44.586Z,23.83
2018-09-18T08:23:14.868Z,23.95
2018-09-18T08:25:45.078Z,24.00
2018-09-18T08:28:14.917Z,24.08
2018-09-18T08:30:44.887Z,24.19
2018-09-18T08:33:14.821Z,24.20
2018-09-18T08:35:44.590Z,24.31
2018-09-18T08:38:14.448Z,24.40
2018-09-18T08:40:44.287Z,24.53
2018-09-18T08:43:14.668Z,24.56
2018-09-18T08:45:45.058Z,24.65
2018-09-18T08:48:15.317Z,24.70
2018-09-18T08:50:45.185Z,24.70
2018-09-18T08:53:15.014Z,24.78
2018-09-18T08:55:45.013Z,24.82
2018-09-18T08:58:15.073Z,24.94
2018-09-18T09:00:45.339Z,24.96
2018-09-18T09:03:15.561Z,25.02
2018-09-18T09:05:45.800Z,25.13
2018-09-18T09:08:16.017Z,25.13
2018-09-18T09:10:45.981Z,25.24
2018-09-18T09:13:16.291Z,25.34
2018-09-18T09:15:46.155Z,25.29
2018-09-18T09:18:17.590Z,25.35
2018-09-18T09:20:47.433Z,25.38
2018-09-18T09:23:17.262Z,25.50
2018-09-18T09:25:47.326Z,25.58
2018-09-18T09:28:17.547Z,25.64
2018-09-18T09:30:47.628Z,25.72
2018-09-18T09:33:18.000Z,25.78
2018-09-18T09:35:48.102Z,25.80
2018-09-18T09:38:18.223Z,25.84
2018-09-18T09:40:48.203Z,25.91
2018-09-18T09:43:18.158Z,25.98
2018-09-18T09:45:48.317Z,26.07
2018-09-18T09:48:18.296Z,26.08
2018-09-18T09:50:48.284Z,26.12
2018-09-18T09:53:18.220Z,26.16
2018-09-18T09:55:48.053Z,26.19
2018-09-18T09:58:18.046Z,26.23
2018-09-18T10:00:53.236Z,26.28
2018-09-18T10:03:23.489Z,26.27
2018-09-18T10:05:53.510Z,26.38
2018-09-18T10:08:24.044Z,26.50
2018-09-18T10:10:53.966Z,26.58
2018-09-18T10:13:23.954Z,26.62
2018-09-18T10:15:53.936Z,26.64
2018-09-18T10:18:23.895Z,26.65
2018-09-18T10:20:54.022Z,26.71
2018-09-18T10:23:24.146Z,26.75
2018-09-18T10:25:54.290Z,26.76
2018-09-18T10:28:24.342Z,26.80
2018-09-18T10:30:54.711Z,26.90
2018-09-18T10:33:24.807Z,26.92
2018-09-18T10:35:54.659Z,26.91
2018-09-18T10:38:24.724Z,26.95
2018-09-18T10:40:54.689Z,27.10
2018-09-18T10:43:24.584Z,27.16
2018-09-18T10:45:54.357Z,27.15
2018-09-18T10:48:24.283Z,27.23
2018-09-18T10:50:54.352Z,27.25
2018-09-18T10:53:24.374Z,27.31
2018-09-18T10:55:54.263Z,27.40
2018-09-18T10:58:24.250Z,27.53
2018-09-18T11:00:54.245Z,27.74
2018-09-18T11:03:24.133Z,27.75
2018-09-18T11:05:54.384Z,27.76
2018-09-18T11:08:24.415Z,27.89
2018-09-18T11:10:54.441Z,27.99
2018-09-18T11:13:24.305Z,28.08
2018-09-18T11:15:54.347Z,28.16
2018-09-18T11:18:24.398Z,28.18
2018-09-18T11:20:54.521Z,28.15
2018-09-18T11:23:24.847Z,28.17
2018-09-18T11:25:55.113Z,28.19
2018-09-18T11:28:25.160Z,28.25
2018-09-18T11:30:55.095Z,28.31
2018-09-18T11:33:25.069Z,28.37
2018-09-18T11:35:55.343Z,28.42
2018-09-18T11:38:25.860Z,28.38
2018-09-18T11:40:55.809Z,28.47
2018-09-18T11:43:25.745Z,28.46
2018-09-18T11:45:55.944Z,28.55
2018-09-18T11:48:25.630Z,28.56
2018-09-18T11:50:55.511Z,28.53
2018-09-18T11:53:25.418Z,28.45
2018-09-18T11:55:55.529Z,28.60
2018-09-18T11:58:25.562Z,28.59
2018-09-18T12:00:55.597Z,28.58
2018-09-18T12:03:25.504Z,28.70
2018-09-18T12:05:55.821Z,28.80
2018-09-18T12:08:25.780Z,28.83
2018-09-18T12:10:55.698Z,28.88
2018-09-18T12:13:25.794Z,28.83
2018-09-18T12:15:55.699Z,28.85
2018-09-18T12:18:25.576Z,29.05
2018-09-18T12:20:55.390Z,29.13
2018-09-18T12:23:25.856Z,29.20
2018-09-18T12:25:55.803Z,29.15
2018-09-18T12:28:25.774Z,29.23
2018-09-18T12:30:55.704Z,29.22
2018-09-18T12:33:25.696Z,29.27
2018-09-18T12:35:55.844Z,29.31
2018-09-18T12:38:25.914Z,29.39
2018-09-18T12:40:55.999Z,29.45
2018-09-18T12:43:26.006Z,29.58
2018-09-18T12:45:56.112Z,29.76
2018-09-18T12:48:25.995Z,29.84
2018-09-18T12:50:56.106Z,30.03
2018-09-18T12:53:25.862Z,30.10
2018-09-18T12:55:55.860Z,30.28
2018-09-18T12:58:26.604Z,30.36
2018-09-18T13:00:56.642Z,30.45
2018-09-18T13:03:26.835Z,30.53
2018-09-18T13:05:56.950Z,30.65
2018-09-18T13:08:26.964Z,30.76
2018-09-18T13:10:56.886Z,30.82
2018-09-18T13:13:26.774Z,30.93
2018-09-18T13:15:56.737Z,31.04
2018-09-18T13:18:26.622Z,31.10
2018-09-18T13:20:56.520Z,31.17
2018-09-18T13:23:26.517Z,31.23
2018-09-18T13:25:56.372Z,31.26
2018-09-18T13:28:26.400Z,31.30
2018-09-18T13:30:56.757Z,31.42
2018-09-18T13:33:26.663Z,31.42
2018-09-18T13:35:56.547Z,31.48
2018-09-18T13:38:26.607Z,31.64
2018-09-18T13:40:56.733Z,31.68
2018-09-18T13:43:26.839Z,31.70
2018-09-18T13:45:56.815Z,31.71
2018-09-18T13:48:26.741Z,31.71
2018-09-18T13:50:56.741Z,31.65
2018-09-18T13:53:26.668Z,31.58
2018-09-18T13:55:56.622Z,31.72
2018-09-18T13:58:26.547Z,31.72
2018-09-18T14:00:57.112Z,31.71
2018-09-18T14:03:27.053Z,31.89
2018-09-18T14:05:57.054Z,31.98
2018-09-18T14:08:27.127Z,31.90
2018-09-18T14:10:57.028Z,31.95
2018-09-18T14:13:27.107Z,32.06
2018-09-18T14:15:57.037Z,32.17
2018-09-18T14:18:27.377Z,32.14
2018-09-18T14:20:57.482Z,32.20
2018-09-18T14:23:27.374Z,32.31
2018-09-18T14:25:57.265Z,32.30
2018-09-18T14:28:27.408Z,32.42
2018-09-18T14:30:57.367Z,32.39
2018-09-18T14:33:27.389Z,32.16
2018-09-18T14:35:58.003Z,31.97
2018-09-18T14:38:27.962Z,31.59
2018-09-18T14:40:57.871Z,31.30
2018-09-18T14:43:27.768Z,31.08
2018-09-18T14:45:57.840Z,30.89
2018-09-18T14:48:27.734Z,30.69
2018-09-18T14:50:57.842Z,30.49
2018-09-18T14:53:27.585Z,30.22
2018-09-18T14:55:57.468Z,30.11
2018-09-18T14:58:27.512Z,29.98
2018-09-18T15:00:57.483Z,29.79
2018-09-18T15:03:27.339Z,29.64
2018-09-18T15:05:57.414Z,29.54
2018-09-18T15:08:27.770Z,29.50
2018-09-18T15:10:58.171Z,29.47
2018-09-18T15:13:28.243Z,29.40
2018-09-18T15:15:58.313Z,29.37
2018-09-18T15:18:28.517Z,29.28
2018-09-18T15:20:58.650Z,29.25
2018-09-18T15:23:28.592Z,29.18
2018-09-18T15:25:58.443Z,29.15
2018-09-18T15:28:28.596Z,29.08
2018-09-18T15:30:58.460Z,28.96
2018-09-18T15:33:28.525Z,28.98
2018-09-18T15:35:58.336Z,28.99
2018-09-18T15:38:28.169Z,28.86
2018-09-18T15:40:58.182Z,28.84
2018-09-18T15:43:28.230Z,28.80
2018-09-18T15:45:58.150Z,28.71
2018-09-18T15:48:28.456Z,28.61
2018-09-18T15:50:58.543Z,28.59
2018-09-18T15:53:28.688Z,28.70
2018-09-18T15:55:58.727Z,28.58
2018-09-18T15:58:28.614Z,28.57
2018-09-18T16:00:58.550Z,28.52
2018-09-18T16:03:28.914Z,28.40
2018-09-18T16:05:58.841Z,28.30
2018-09-18T16:08:28.911Z,28.34
2018-09-18T16:10:58.969Z,28.28
2018-09-18T16:13:28.909Z,28.24
2018-09-18T16:15:59.320Z,28.22
2018-09-18T16:18:29.384Z,28.11
2018-09-18T16:21:01.045Z,28.05
2018-09-18T16:23:31.471Z,28.07
2018-09-18T16:26:01.760Z,27.98
2018-09-18T16:28:32.879Z,27.90
2018-09-18T16:31:03.029Z,27.98
2018-09-18T16:33:33.465Z,27.90
2018-09-18T16:36:03.529Z,27.85
2018-09-18T16:38:34.325Z,27.75
2018-09-18T16:41:04.410Z,27.67
2018-09-18T16:43:35.578Z,27.66
2018-09-18T16:46:05.744Z,27.58
2018-09-18T16:48:35.877Z,27.55
2018-09-18T16:51:06.099Z,27.46
2018-09-18T16:53:36.077Z,27.39
2018-09-18T16:56:06.201Z,27.31
2018-09-18T16:58:36.626Z,27.22
2018-09-18T17:01:07.324Z,27.23
2018-09-18T17:03:37.438Z,27.21
2018-09-18T17:06:07.712Z,27.17
2018-09-18T17:08:37.832Z,27.08
2018-09-18T17:11:07.923Z,27.09
2018-09-18T17:13:37.980Z,26.91
2018-09-18T17:16:07.899Z,26.85
2018-09-18T17:18:37.854Z,26.79
2018-09-18T17:21:07.919Z,26.70
2018-09-18T17:23:38.026Z,26.52
2018-09-18T17:26:08.277Z,26.45
2018-09-18T17:28:38.390Z,26.37
2018-09-18T17:31:09.415Z,26.31
2018-09-18T17:33:39.488Z,26.34
2018-09-18T17:36:09.568Z,26.20
2018-09-18T17:38:39.696Z,26.16
2018-09-18T17:41:10.775Z,26.06
2018-09-18T17:43:40.968Z,25.95
2018-09-18T17:46:10.903Z,25.94
2018-09-18T17:48:41.150Z,25.81
2018-09-18T17:51:12.329Z,25.83
2018-09-18T17:53:44.092Z,25.78
2018-09-18T17:56:16.621Z,25.72
2018-09-18T17:58:47.906Z,25.70
2018-09-18T18:01:18.876Z,25.52
2018-09-18T18:03:49.565Z,25.49
2018-09-18T18:06:20.823Z,25.40
2018-09-18T18:08:50.982Z,25.31
2018-09-18T18:11:20.891Z,25.32
2018-09-18T18:13:51.125Z,25.28
2018-09-18T18:16:21.640Z,25.22
2018-09-18T18:18:51.680Z,25.18
2018-09-18T18:21:21.873Z,25.15
2018-09-18T18:23:51.816Z,25.11
2018-09-18T18:26:22.063Z,24.99
2018-09-18T18:28:52.174Z,24.97
2018-09-18T18:31:22.961Z,24.87
2018-09-18T18:33:54.720Z,24.86
2018-09-18T18:36:24.770Z,24.78
2018-09-18T18:38:54.942Z,24.82
2018-09-18T18:41:25.031Z,24.69
2018-09-18T18:43:55.276Z,24.71
2018-09-18T18:46:25.215Z,24.64
2018-09-18T18:48:55.066Z,24.57
2018-09-18T18:51:25.294Z,24.59
2018-09-18T18:53:55.603Z,24.59
2018-09-18T18:56:25.709Z,24.50
2018-09-18T18:58:55.634Z,24.47
2018-09-18T19:01:25.831Z,24.36
2018-09-18T19:03:56.312Z,24.30
2018-09-18T19:06:26.605Z,24.25
2018-09-18T19:08:56.690Z,24.23
2018-09-18T19:11:26.768Z,24.17
2018-09-18T19:13:56.793Z,24.17
2018-09-18T19:16:27.240Z,24.09
2018-09-18T19:18:57.127Z,24.09
2018-09-18T19:21:27.149Z,24.00
2018-09-18T19:23:57.144Z,23.94
2018-09-18T19:26:27.494Z,23.90
2018-09-18T19:28:57.952Z,23.85
2018-09-18T19:31:28.442Z,23.78
2018-09-18T19:34:00.762Z,23.72
2018-09-18T19:36:30.988Z,23.69
2018-09-18T19:39:01.444Z,23.69
2018-09-18T19:41:31.469Z,23.68
2018-09-18T19:44:05.410Z,23.61
2018-09-18T19:46:35.612Z,23.60
2018-09-18T19:49:05.810Z,23.55
2018-09-18T19:51:36.127Z,23.47
2018-09-18T19:54:06.376Z,23.45
2018-09-18T19:56:36.635Z,23.39
2018-09-18T19:59:06.972Z,23.39
2018-09-18T20:01:39.104Z,23.35
2018-09-18T20:04:09.278Z,23.29
2018-09-18T20:06:39.539Z,23.23
2018-09-18T20:09:11.958Z,23.21
2018-09-18T20:11:41.966Z,23.16
2018-09-18T20:14:12.100Z,23.15
2018-09-18T20:16:42.059Z,23.11
2018-09-18T20:19:12.035Z,23.03
2018-09-18T20:21:42.343Z,23.01
2018-09-18T20:24:12.276Z,23.00
2018-09-18T20:26:42.282Z,22.97
2018-09-18T20:29:12.621Z,22.90
2018-09-18T20:31:42.489Z,22.85
2018-09-18T20:34:12.434Z,22.81
2018-09-18T20:36:42.512Z,22.84
2018-09-18T20:39:12.947Z,22.86
2018-09-18T20:41:43.318Z,22.78
2018-09-18T20:44:13.387Z,22.77
2018-09-18T20:46:43.479Z,22.63
2018-09-18T20:49:13.400Z,22.52
2018-09-18T20:51:43.448Z,22.44
2018-09-18T20:54:13.402Z,22.43
2018-09-18T20:56:43.372Z,22.30
2018-09-18T20:59:13.595Z,22.17
2018-09-18T21:01:43.540Z,22.11
2018-09-18T21:04:13.945Z,22.15
2018-09-18T21:06:43.887Z,22.14
2018-09-18T21:09:14.141Z,22.10
2018-09-18T21:11:44.125Z,22.14
2018-09-18T21:14:14.145Z,22.12
2018-09-18T21:16:44.030Z,22.23
2018-09-18T21:19:14.187Z,22.27
2018-09-18T21:21:44.157Z,22.24
2018-09-18T21:24:14.597Z,22.33
2018-09-18T21:26:44.705Z,22.34
2018-09-18T21:29:15.096Z,22.28
2018-09-18T21:31:45.300Z,22.22
2018-09-18T21:34:15.606Z,22.20
2018-09-18T21:36:45.700Z,22.18
2018-09-18T21:39:16.264Z,22.09
2018-09-18T21:41:46.248Z,22.13
2018-09-18T21:44:16.422Z,22.07
2018-09-18T21:46:46.441Z,22.15
2018-09-18T21:49:16.756Z,22.09
2018-09-18T21:51:46.824Z,21.98
2018-09-18T21:54:17.239Z,21.90
2018-09-18T21:56:47.405Z,21.94
2018-09-18T21:59:17.530Z,21.84
2018-09-18T22:01:47.558Z,21.80
2018-09-18T22:04:18.410Z,21.74
2018-09-18T22:06:48.737Z,21.74
2018-09-18T22:09:19.372Z,21.75
2018-09-18T22:11:49.876Z,21.73
2018-09-18T22:14:19.996Z,21.74
2018-09-18T22:16:49.974Z,21.76
2018-09-18T22:19:19.918Z,21.73
2018-09-18T22:21:50.011Z,21.71
2018-09-18T22:24:20.171Z,21.70
2018-09-18T22:26:50.259Z,21.64
2018-09-18T22:29:20.215Z,21.63
2018-09-18T22:31:50.470Z,21.63
2018-09-18T22:34:20.946Z,21.63
2018-09-18T22:36:51.592Z,21.60
2018-09-18T22:39:21.732Z,21.57
2018-09-18T22:41:51.887Z,21.59
2018-09-18T22:44:22.177Z,21.48
2018-09-18T22:46:52.297Z,21.41
2018-09-18T22:49:23.000Z,21.40
2018-09-18T22:51:53.231Z,21.45
2018-09-18T22:54:23.597Z,21.50
2018-09-18T22:56:53.725Z,21.42
2018-09-18T22:59:24.307Z,21.37
2018-09-18T23:01:54.517Z,21.40
2018-09-18T23:04:24.574Z,21.44
2018-09-18T23:06:54.963Z,21.47
2018-09-18T23:09:25.182Z,21.45
2018-09-18T23:11:55.308Z,21.39
2018-09-18T23:14:25.435Z,21.38
2018-09-18T23:16:55.744Z,21.35
2018-09-18T23:19:25.999Z,21.33
2018-09-18T23:21:56.533Z,21.31
2018-09-18T23:24:26.860Z,21.29
2018-09-18T23:26:56.981Z,21.25
2018-09-18T23:29:27.401Z,21.19
2018-09-18T23:31:57.722Z,21.10
2018-09-18T23:34:27.973Z,21.02
2018-09-18T23:36:58.037Z,21.01
2018-09-18T23:39:28.528Z,21.00
2018-09-18T23:41:58.723Z,20.98
2018-09-18T23:44:29.581Z,20.97
2018-09-18T23:46:59.996Z,20.93
2018-09-18T23:49:30.320Z,20.94
2018-09-18T23:52:00.524Z,20.97
2018-09-18T23:54:30.758Z,21.04
2018-09-18T23:57:01.206Z,20.98
2018-09-18T23:59:31.331Z,20.97
